createdAt,value
2018-02-15T00:01:55.601Z,32.70
2018-02-15T00:04:23.840Z,34.47
2018-02-15T00:06:52.061Z,34.50
2018-02-15T00:09:20.332Z,28.70
2018-02-15T00:11:48.528Z,31.47
2018-02-15T00:14:17.669Z,26.67
2018-02-15T00:16:45.981Z,29.57
2018-02-15T00:19:14.285Z,33.43
2018-02-15T00:21:44.536Z,36.20
2018-02-15T00:24:12.773Z,31.97
2018-02-15T00:26:41.020Z,30.20
2018-02-15T00:29:09.591Z,32.83
2018-02-15T00:31:37.885Z,32.97
2018-02-15T00:34:06.211Z,33.63
2018-02-15T00:36:34.506Z,33.77
2018-02-15T00:39:02.758Z,33.70
2018-02-15T00:41:30.982Z,29.07
2018-02-15T00:44:00.066Z,28.63
2018-02-15T00:46:29.052Z,32.30
2018-02-15T00:48:57.264Z,33.43
2018-02-15T00:51:25.620Z,31.57
2018-02-15T00:53:54.597Z,31.80
2018-02-15T00:56:22.859Z,27.73
2018-02-15T00:58:51.088Z,29.67
2018-02-15T01:01:19.292Z,33.63
2018-02-15T01:03:47.508Z,31.80
2018-02-15T01:06:16.808Z,28.73
2018-02-15T01:08:45.789Z,31.40
2018-02-15T01:11:14.026Z,34.43
2018-02-15T01:13:42.256Z,34.77
2018-02-15T01:16:11.232Z,34.07
2018-02-15T01:18:39.437Z,32.80
2018-02-15T01:21:07.672Z,30.10
2018-02-15T01:23:35.877Z,31.33
2018-02-15T01:26:04.844Z,32.07
2018-02-15T01:28:33.144Z,34.30
2018-02-15T01:31:02.130Z,31.13
2018-02-15T01:33:31.106Z,33.97
2018-02-15T01:35:59.472Z,31.20
2018-02-15T01:38:27.748Z,34.27
2018-02-15T01:40:55.980Z,32.87
2018-02-15T01:43:24.362Z,30.97
2018-02-15T01:45:52.572Z,35.87
2018-02-15T01:48:20.774Z,40.27
2018-02-15T01:50:49.120Z,39.70
2018-02-15T01:53:17.360Z,32.93
2018-02-15T01:55:47.073Z,33.43
2018-02-15T01:58:15.335Z,33.87
2018-02-15T02:00:43.514Z,31.00
2018-02-15T02:03:11.726Z,30.73
2018-02-15T02:05:39.952Z,33.43
2018-02-15T02:08:08.934Z,32.97
2018-02-15T02:10:37.173Z,31.87
2018-02-15T02:13:05.413Z,35.33
2018-02-15T02:15:33.660Z,35.30
2018-02-15T02:18:02.632Z,33.33
2018-02-15T02:20:30.886Z,33.17
2018-02-15T02:22:59.130Z,33.50
2018-02-15T02:25:28.119Z,34.57
2018-02-15T02:27:57.179Z,34.63
2018-02-15T02:30:25.400Z,37.37
2018-02-15T02:35:20.503Z,43.20
2018-02-15T02:37:48.680Z,33.37
2018-02-15T02:40:17.656Z,38.17
2018-02-15T02:42:45.900Z,33.03
2018-02-15T02:45:14.092Z,32.57
2018-02-15T02:47:42.297Z,45.17
2018-02-15T02:50:11.402Z,39.23
2018-02-15T02:52:39.598Z,36.43
2018-02-15T02:55:07.873Z,36.57
2018-02-15T02:57:36.172Z,34.57
2018-02-15T03:00:04.384Z,35.90
2018-02-15T03:02:32.573Z,35.07
2018-02-15T03:05:01.577Z,32.50
2018-02-15T03:07:31.012Z,36.87
2018-02-15T03:09:59.207Z,35.27
2018-02-15T03:12:27.474Z,39.77
2018-02-15T03:14:55.673Z,35.77
2018-02-15T03:17:23.979Z,34.60
2018-02-15T03:19:53.106Z,37.77
2018-02-15T03:22:21.308Z,32.80
2018-02-15T03:24:49.578Z,34.17
2018-02-15T03:27:17.814Z,38.30
2018-02-15T03:29:46.008Z,35.33
2018-02-15T03:32:14.226Z,31.33
2018-02-15T03:34:42.464Z,34.40
2018-02-15T03:37:10.936Z,34.10
2018-02-15T03:39:39.193Z,38.23
2018-02-15T03:42:07.429Z,36.20
2018-02-15T03:44:36.424Z,37.27
2018-02-15T03:47:04.620Z,39.97
2018-02-15T03:49:32.854Z,34.33
2018-02-15T03:52:01.132Z,31.63
2018-02-15T03:54:29.445Z,35.23
2018-02-15T03:56:58.440Z,39.60
2018-02-15T03:59:27.409Z,33.03
2018-02-15T04:01:55.612Z,35.23
2018-02-15T04:04:24.921Z,31.53
2018-02-15T04:06:53.134Z,34.20
2018-02-15T04:09:21.550Z,35.93
2018-02-15T04:11:49.808Z,36.13
2018-02-15T04:14:18.012Z,34.83
2018-02-15T04:16:46.980Z,37.90
2018-02-15T04:19:15.216Z,40.90
2018-02-15T04:21:43.440Z,34.60
2018-02-15T04:24:11.656Z,31.27
2018-02-15T04:26:40.049Z,38.77
2018-02-15T04:29:08.248Z,39.90
2018-02-15T04:31:36.458Z,38.67
2018-02-15T04:34:04.770Z,39.23
2018-02-15T04:36:33.124Z,32.00
2018-02-15T04:39:02.096Z,33.13
2018-02-15T04:41:30.416Z,35.80
2018-02-15T04:43:58.621Z,36.87
2018-02-15T04:46:26.825Z,37.47
2018-02-15T04:48:55.082Z,35.53
2018-02-15T04:51:23.288Z,37.77
2018-02-15T04:53:52.409Z,37.80
2018-02-15T04:56:20.692Z,39.63
2018-02-15T04:58:48.893Z,38.77
2018-02-15T05:01:17.120Z,36.40
2018-02-15T05:03:47.344Z,37.30
2018-02-15T05:06:16.330Z,36.00
2018-02-15T05:08:44.521Z,39.20
2018-02-15T05:11:14.148Z,32.37
2018-02-15T05:13:42.394Z,37.20
2018-02-15T05:16:11.448Z,36.70
2018-02-15T05:18:39.747Z,36.83
2018-02-15T05:21:07.971Z,38.50
2018-02-15T05:23:36.169Z,37.90
2018-02-15T05:26:04.472Z,37.40
2018-02-15T05:28:32.672Z,34.83
2018-02-15T05:31:00.869Z,33.70
2018-02-15T05:33:30.322Z,38.40
2018-02-15T05:35:58.532Z,32.60
2018-02-15T05:38:26.772Z,36.93
2018-02-15T05:40:55.071Z,36.03
2018-02-15T05:43:23.253Z,38.67
2018-02-15T05:45:51.453Z,38.70
2018-02-15T05:48:19.688Z,38.30
2018-02-15T05:50:48.677Z,38.43
2018-02-15T05:53:16.872Z,34.77
2018-02-15T05:58:08.496Z,38.17
2018-02-15T06:00:37.452Z,36.27
2018-02-15T06:03:05.664Z,35.33
2018-02-15T06:05:34.745Z,39.93
2018-02-15T06:08:02.940Z,33.63
2018-02-15T06:10:31.913Z,37.07
2018-02-15T06:13:01.425Z,39.27
2018-02-15T06:15:30.404Z,34.03
2018-02-15T06:17:58.606Z,35.47
2018-02-15T06:20:27.620Z,35.90
2018-02-15T06:22:55.890Z,34.13
2018-02-15T06:25:24.112Z,38.73
2018-02-15T06:27:52.378Z,37.27
2018-02-15T06:30:20.669Z,35.27
2018-02-15T06:32:48.956Z,36.07
2018-02-15T06:35:17.245Z,37.47
2018-02-15T06:37:46.320Z,37.43
2018-02-15T06:40:14.525Z,33.43
2018-02-15T06:42:43.548Z,35.37
2018-02-15T06:45:11.808Z,36.27
2018-02-15T06:47:40.058Z,37.23
2018-02-15T06:50:08.310Z,38.67
2018-02-15T06:52:36.516Z,37.40
2018-02-15T06:55:05.477Z,38.10
2018-02-15T06:57:33.708Z,36.00
2018-02-15T07:00:01.920Z,34.93
2018-02-15T07:02:30.227Z,37.73
2018-02-15T07:04:58.576Z,35.17
2018-02-15T07:07:26.787Z,35.40
2018-02-15T07:09:55.744Z,36.97
2018-02-15T07:12:23.970Z,36.20
2018-02-15T07:14:52.241Z,37.67
2018-02-15T07:17:20.506Z,37.50
2018-02-15T07:19:48.740Z,36.37
2018-02-15T07:22:17.067Z,37.90
2018-02-15T07:24:45.333Z,35.43
2018-02-15T07:27:13.670Z,36.70
2018-02-15T07:29:41.873Z,35.30
2018-02-15T07:32:10.089Z,38.43
2018-02-15T07:34:39.129Z,37.33
2018-02-15T07:37:07.394Z,33.90
2018-02-15T07:39:35.597Z,33.73
2018-02-15T07:42:03.904Z,35.50
2018-02-15T07:44:32.207Z,35.17
2018-02-15T07:47:01.169Z,37.87
2018-02-15T07:49:29.654Z,36.60
2018-02-15T07:51:58.132Z,37.13
2018-02-15T07:54:26.368Z,42.37
2018-02-15T07:56:54.779Z,37.10
2018-02-15T07:59:23.004Z,38.63
2018-02-15T08:01:51.236Z,36.47
2018-02-15T08:04:19.480Z,38.90
2018-02-15T08:06:47.834Z,41.00
2018-02-15T08:09:16.116Z,38.80
2018-02-15T08:11:47.112Z,38.20
2018-02-15T08:14:16.159Z,39.20
2018-02-15T08:16:44.423Z,38.87
2018-02-15T08:19:12.720Z,38.27
2018-02-15T08:21:40.992Z,39.80
2018-02-15T08:24:09.208Z,41.27
2018-02-15T08:26:37.663Z,35.50
2018-02-15T08:29:05.869Z,35.70
2018-02-15T08:31:34.070Z,37.37
2018-02-15T08:34:02.343Z,42.17
2018-02-15T08:36:30.577Z,37.10
2018-02-15T08:38:58.849Z,33.97
2018-02-15T08:41:28.272Z,38.07
2018-02-15T08:43:56.473Z,38.57
2018-02-15T08:46:24.741Z,35.77
2018-02-15T08:48:53.041Z,33.50
2018-02-15T08:51:21.248Z,36.80
2018-02-15T08:53:49.473Z,38.97
2018-02-15T08:56:17.754Z,32.73
2018-02-15T08:58:46.161Z,33.30
2018-02-15T09:01:14.428Z,31.73
2018-02-15T09:03:42.735Z,31.27
2018-02-15T09:06:11.009Z,37.23
2018-02-15T09:08:39.240Z,33.87
2018-02-15T09:11:07.656Z,32.20
2018-02-15T09:13:37.040Z,30.90
2018-02-15T09:16:05.324Z,37.37
2018-02-15T09:18:33.593Z,32.13
2018-02-15T09:21:02.079Z,32.93
2018-02-15T09:23:30.326Z,30.63
2018-02-15T09:25:59.344Z,38.77
2018-02-15T09:28:27.536Z,35.60
2018-02-15T09:30:55.749Z,36.73
2018-02-15T09:33:23.991Z,32.70
2018-02-15T09:35:52.261Z,31.90
2018-02-15T09:38:20.464Z,35.60
2018-02-15T09:40:48.722Z,37.57
2018-02-15T09:43:16.993Z,32.77
2018-02-15T09:45:45.236Z,32.53
2018-02-15T09:48:13.436Z,32.57
2018-02-15T09:50:41.701Z,34.10
2018-02-15T09:53:09.980Z,32.10
2018-02-15T09:55:38.222Z,32.53
2018-02-15T09:58:07.196Z,32.27
2018-02-15T10:00:35.518Z,34.77
2018-02-15T10:03:03.820Z,31.63
2018-02-15T10:05:32.030Z,35.47
2018-02-15T10:08:00.237Z,33.20
2018-02-15T10:10:28.488Z,31.47
2018-02-15T10:12:56.756Z,31.37
2018-02-15T10:15:27.002Z,30.23
2018-02-15T10:17:55.992Z,31.93
2018-02-15T10:20:24.188Z,30.47
2018-02-15T10:22:52.460Z,29.83
2018-02-15T10:25:20.787Z,30.47
2018-02-15T10:27:48.980Z,32.80
2018-02-15T10:30:17.957Z,33.73
2018-02-15T10:32:46.174Z,30.20
2018-02-15T10:35:14.427Z,35.40
2018-02-15T10:37:43.448Z,29.67
2018-02-15T10:40:11.728Z,31.57
2018-02-15T10:42:39.949Z,30.73
2018-02-15T10:45:08.149Z,34.47
2018-02-15T10:47:37.276Z,28.37
2018-02-15T10:50:05.495Z,30.03
2018-02-15T10:52:33.732Z,30.37
2018-02-15T10:55:01.969Z,35.20
2018-02-15T10:57:31.047Z,31.43
2018-02-15T10:59:59.240Z,33.50
2018-02-15T11:02:28.234Z,34.57
2018-02-15T11:05:02.812Z,36.17
2018-02-15T11:07:31.132Z,32.83
2018-02-15T11:10:00.100Z,32.43
2018-02-15T11:12:28.320Z,32.87
2018-02-15T11:14:56.672Z,34.30
2018-02-15T11:17:24.873Z,28.73
2018-02-15T11:19:53.097Z,26.20
2018-02-15T11:22:21.351Z,26.33
2018-02-15T11:24:49.546Z,25.80
2018-02-15T11:27:17.844Z,26.10
2018-02-15T11:29:46.073Z,28.80
2018-02-15T11:32:14.395Z,28.80
2018-02-15T11:34:42.620Z,25.87
2018-02-15T11:37:10.859Z,29.80
2018-02-15T11:39:39.921Z,28.13
2018-02-15T11:42:08.138Z,24.90
2018-02-15T11:44:37.121Z,31.33
2018-02-15T11:47:06.116Z,29.03
2018-02-15T11:49:35.097Z,26.27
2018-02-15T11:52:03.355Z,28.60
2018-02-15T11:54:31.764Z,26.67
2018-02-15T11:57:00.884Z,29.00
2018-02-15T11:59:29.204Z,29.53
2018-02-15T12:01:57.405Z,27.30
2018-02-15T12:04:26.408Z,27.70
2018-02-15T12:06:55.464Z,26.30
2018-02-15T12:09:23.676Z,26.33
2018-02-15T12:11:51.872Z,27.73
2018-02-15T12:14:20.168Z,26.80
2018-02-15T12:16:48.598Z,29.90
2018-02-15T12:19:17.568Z,28.23
2018-02-15T12:21:45.829Z,28.17
2018-02-15T12:24:14.764Z,26.63
2018-02-15T12:26:43.831Z,28.40
2018-02-15T12:29:12.089Z,28.03
2018-02-15T12:31:40.329Z,29.87
2018-02-15T12:34:09.532Z,25.67
2018-02-15T12:36:39.071Z,27.97
2018-02-15T12:39:07.467Z,28.77
2018-02-15T12:41:35.671Z,26.53
2018-02-15T12:44:04.684Z,28.67
2018-02-15T12:46:32.912Z,30.03
2018-02-15T12:49:01.090Z,30.03
2018-02-15T12:51:29.420Z,29.60
2018-02-15T12:53:57.671Z,30.57
2018-02-15T12:56:25.896Z,30.00
2018-02-15T12:58:54.192Z,27.17
2018-02-15T13:01:22.389Z,32.77
2018-02-15T13:03:51.363Z,28.00
2018-02-15T13:06:20.542Z,27.73
2018-02-15T13:08:48.732Z,28.23
2018-02-15T13:11:16.996Z,27.50
2018-02-15T13:13:45.251Z,29.70
2018-02-15T13:16:25.230Z,26.83
2018-02-15T13:19:06.648Z,26.10
2018-02-15T13:21:34.904Z,27.83
2018-02-15T13:24:03.082Z,26.50
2018-02-15T13:26:31.532Z,32.47
2018-02-15T13:28:59.740Z,27.37
2018-02-15T13:31:28.756Z,25.77
2018-02-15T13:33:57.792Z,28.27
2018-02-15T13:36:26.051Z,26.50
2018-02-15T13:38:54.241Z,26.70
2018-02-15T13:41:22.564Z,27.20
2018-02-15T13:43:51.520Z,26.93
2018-02-15T13:46:19.720Z,29.63
2018-02-15T13:48:47.944Z,25.50
2018-02-15T13:51:16.188Z,25.60
2018-02-15T13:53:45.212Z,25.57
2018-02-15T13:56:13.486Z,26.60
2018-02-15T13:58:41.785Z,27.20
2018-02-15T14:01:10.027Z,27.13
2018-02-15T14:03:39.015Z,27.13
2018-02-15T14:06:08.082Z,26.87
2018-02-15T14:08:36.467Z,29.20
2018-02-15T14:11:04.707Z,27.23
2018-02-15T14:13:32.905Z,25.90
2018-02-15T14:16:01.187Z,27.93
2018-02-15T14:18:29.505Z,30.67
2018-02-15T14:20:57.708Z,26.20
2018-02-15T14:23:25.905Z,25.33
2018-02-15T14:25:54.977Z,26.27
2018-02-15T14:28:23.174Z,27.60
2018-02-15T14:30:51.373Z,27.23
2018-02-15T14:33:20.436Z,28.13
2018-02-15T14:35:48.648Z,26.53
2018-02-15T14:38:17.676Z,28.23
2018-02-15T14:40:45.993Z,27.73
2018-02-15T14:43:14.144Z,26.50
2018-02-15T14:45:42.512Z,28.57
2018-02-15T14:48:10.804Z,31.13
2018-02-15T14:53:19.000Z,30.10
2018-02-15T14:55:47.196Z,28.53
2018-02-15T14:58:15.393Z,32.57
2018-02-15T15:00:43.642Z,30.23
2018-02-15T15:03:11.836Z,29.33
2018-02-15T15:05:40.040Z,29.00
2018-02-15T15:08:09.064Z,31.50
2018-02-15T15:10:37.575Z,31.83
2018-02-15T15:13:05.756Z,32.47
2018-02-15T15:15:33.985Z,32.37
2018-02-15T15:18:02.184Z,33.63
2018-02-15T15:20:30.393Z,36.13
2018-02-15T15:22:58.648Z,34.70
2018-02-15T15:25:26.877Z,36.43
2018-02-15T15:27:55.117Z,35.37
2018-02-15T15:30:23.405Z,35.67
2018-02-15T15:32:51.639Z,38.53
2018-02-15T15:35:19.861Z,34.80
2018-02-15T15:37:48.856Z,38.57
2018-02-15T15:40:17.900Z,39.27
2018-02-15T15:42:46.112Z,37.00
2018-02-15T15:45:14.516Z,38.53
2018-02-15T15:47:43.480Z,39.97
2018-02-15T15:50:11.684Z,39.43
2018-02-15T15:52:40.692Z,37.40
2018-02-15T15:55:09.032Z,41.23
2018-02-15T15:57:37.267Z,44.67
2018-02-15T16:00:05.724Z,40.53
2018-02-15T16:02:34.008Z,43.27
2018-02-15T16:05:02.241Z,44.07
2018-02-15T16:07:30.636Z,42.67
2018-02-15T16:09:59.587Z,46.00
2018-02-15T16:12:27.840Z,44.83
2018-02-15T16:14:56.216Z,40.93
2018-02-15T16:17:24.577Z,51.37
2018-02-15T16:19:53.507Z,44.20
2018-02-15T16:22:21.841Z,44.20
2018-02-15T16:24:52.105Z,43.60
2018-02-15T16:27:20.332Z,46.30
2018-02-15T16:29:49.325Z,47.43
2018-02-15T16:32:18.310Z,46.23
2018-02-15T16:34:46.592Z,44.57
2018-02-15T16:37:15.608Z,50.87
2018-02-15T16:39:43.816Z,49.60
2018-02-15T16:42:12.113Z,49.97
2018-02-15T16:44:40.437Z,51.90
2018-02-15T16:47:08.705Z,47.90
2018-02-15T16:49:36.900Z,50.33
2018-02-15T16:52:05.156Z,47.80
2018-02-15T16:54:33.456Z,47.97
2018-02-15T16:57:02.444Z,51.30
2018-02-15T16:59:30.751Z,51.73
2018-02-15T17:01:59.016Z,47.50
2018-02-15T17:04:27.218Z,51.17
2018-02-15T17:06:55.633Z,50.63
2018-02-15T17:09:23.892Z,45.40
2018-02-15T17:11:52.090Z,51.53
2018-02-15T17:14:20.450Z,51.20
2018-02-15T17:16:49.468Z,48.23
2018-02-15T17:19:18.484Z,54.80
2018-02-15T17:21:46.773Z,51.27
2018-02-15T17:24:15.604Z,60.03
2018-02-15T17:26:44.581Z,52.23
2018-02-15T17:29:12.821Z,54.77
2018-02-15T17:31:41.032Z,56.73
2018-02-15T17:34:09.390Z,53.43
2018-02-15T17:36:37.634Z,51.93
2018-02-15T17:39:05.879Z,54.00
2018-02-15T17:41:34.870Z,50.97
2018-02-15T17:44:03.900Z,54.97
2018-02-15T17:46:32.210Z,50.07
2018-02-15T17:49:00.388Z,59.77
2018-02-15T17:51:28.621Z,59.93
2018-02-15T17:53:56.845Z,58.23
2018-02-15T17:56:25.244Z,65.43
2018-02-15T17:58:54.224Z,57.63
2018-02-15T18:01:22.417Z,60.90
2018-02-15T18:03:51.390Z,61.63
2018-02-15T18:06:19.684Z,75.47
2018-02-15T18:08:48.649Z,63.40
2018-02-15T18:11:16.864Z,68.00
2018-02-15T18:13:45.097Z,69.83
2018-02-15T18:16:13.312Z,65.50
2018-02-15T18:18:41.616Z,62.90
2018-02-15T18:21:09.888Z,71.63
2018-02-15T18:23:38.892Z,84.30
2018-02-15T18:26:07.149Z,71.77
2018-02-15T18:28:35.444Z,75.43
2018-02-15T18:31:03.681Z,66.57
2018-02-15T18:33:32.820Z,87.10
2018-02-15T18:36:01.071Z,76.27
2018-02-15T18:38:29.260Z,65.23
2018-02-15T18:40:57.500Z,62.77
2018-02-15T18:43:25.736Z,83.27
2018-02-15T18:45:54.027Z,67.33
2018-02-15T18:48:22.268Z,74.70
2018-02-15T18:50:50.573Z,82.30
2018-02-15T18:53:18.921Z,64.60
2018-02-15T18:55:47.119Z,82.67
2018-02-15T18:58:15.462Z,60.57
2018-02-15T19:00:43.664Z,60.77
2018-02-15T19:03:11.877Z,64.60
2018-02-15T19:05:40.073Z,63.33
2018-02-15T19:08:09.947Z,65.80
2018-02-15T19:10:38.115Z,74.93
2018-02-15T19:13:06.505Z,76.87
2018-02-15T19:15:34.768Z,67.20
2018-02-15T19:18:03.016Z,66.40
2018-02-15T19:20:31.260Z,72.23
2018-02-15T19:23:00.257Z,77.13
2018-02-15T19:25:28.420Z,69.00
2018-02-15T19:27:56.676Z,63.10
2018-02-15T19:30:24.872Z,67.33
2018-02-15T19:32:53.844Z,62.97
2018-02-15T19:35:22.236Z,62.23
2018-02-15T19:37:50.444Z,70.47
2018-02-15T19:40:18.644Z,58.73
2018-02-15T19:42:46.884Z,56.87
2018-02-15T19:45:15.840Z,62.50
2018-02-15T19:47:44.178Z,67.47
2018-02-15T19:50:12.399Z,70.53
2018-02-15T19:52:40.599Z,64.63
2018-02-15T19:55:09.664Z,81.40
2018-02-15T19:57:39.200Z,57.13
2018-02-15T20:00:08.161Z,61.63
2018-02-15T20:02:36.355Z,81.10
2018-02-15T20:05:05.352Z,56.50
2018-02-15T20:07:34.336Z,66.27
2018-02-15T20:10:02.565Z,71.87
2018-02-15T20:12:30.776Z,66.20
2018-02-15T20:14:58.968Z,54.93
2018-02-15T20:17:28.084Z,55.80
2018-02-15T20:20:01.884Z,61.87
2018-02-15T20:22:30.856Z,56.43
2018-02-15T20:24:59.133Z,63.50
2018-02-15T20:27:32.905Z,61.20
2018-02-15T20:30:01.148Z,59.27
2018-02-15T20:32:30.148Z,55.97
2018-02-15T20:34:58.372Z,50.03
2018-02-15T20:37:32.136Z,69.23
2018-02-15T20:40:05.952Z,65.17
2018-02-15T20:42:34.152Z,65.40
2018-02-15T20:45:02.380Z,60.77
2018-02-15T20:47:30.741Z,67.93
2018-02-15T20:50:05.376Z,66.93
2018-02-15T20:52:39.353Z,72.53
2018-02-15T20:55:13.221Z,68.60
2018-02-15T20:57:42.717Z,72.23
2018-02-15T21:00:10.917Z,77.37
2018-02-15T21:02:39.112Z,72.60
2018-02-15T21:05:07.444Z,66.07
2018-02-15T21:07:35.760Z,58.90
2018-02-15T21:10:03.969Z,77.07
2018-02-15T21:12:33.181Z,76.33
2018-02-15T21:15:01.448Z,77.03
2018-02-15T21:17:30.555Z,74.90
2018-02-15T21:19:58.840Z,61.30
2018-02-15T21:22:27.053Z,69.67
2018-02-15T21:24:56.085Z,69.90
2018-02-15T21:27:25.208Z,66.03
2018-02-15T21:29:53.488Z,70.53
2018-02-15T21:32:21.690Z,75.93
2018-02-15T21:34:50.092Z,81.40
2018-02-15T21:37:19.065Z,70.10
2018-02-15T21:39:47.270Z,57.83
2018-02-15T21:42:15.537Z,67.57
2018-02-15T21:44:43.913Z,60.50
2018-02-15T21:47:12.120Z,53.53
2018-02-15T21:49:40.364Z,68.40
2018-02-15T21:52:08.552Z,64.75
2018-02-15T21:54:37.508Z,70.67
2018-02-15T21:57:05.736Z,63.87
2018-02-15T21:59:34.094Z,61.07
2018-02-15T22:02:02.290Z,57.67
2018-02-15T22:04:30.561Z,47.27
2018-02-15T22:06:58.771Z,57.30
2018-02-15T22:09:27.030Z,58.53
2018-02-15T22:11:55.270Z,56.60
2018-02-15T22:14:23.479Z,54.43
2018-02-15T22:16:51.678Z,49.23
2018-02-15T22:19:19.908Z,62.97
2018-02-15T22:21:48.894Z,60.83
2018-02-15T22:24:17.944Z,52.33
2018-02-15T22:26:46.240Z,51.90
2018-02-15T22:29:14.820Z,52.23
2018-02-15T22:31:44.380Z,55.83
2018-02-15T22:34:12.624Z,44.83
2018-02-15T22:39:15.963Z,43.20
2018-02-15T22:41:45.092Z,62.03
2018-02-15T22:44:13.328Z,55.73
2018-02-15T22:46:42.336Z,45.70
2018-02-15T22:49:10.532Z,48.53
2018-02-15T22:51:38.782Z,48.63
2018-02-15T22:54:07.785Z,60.83
2018-02-15T22:56:36.059Z,54.27
2018-02-15T22:59:04.306Z,41.53
2018-02-15T23:01:33.483Z,47.83
2018-02-15T23:04:01.784Z,56.70
2018-02-15T23:06:29.972Z,51.23
2018-02-15T23:08:59.092Z,58.13
2018-02-15T23:11:27.352Z,43.63
2018-02-15T23:13:56.349Z,53.20
2018-02-15T23:16:25.366Z,50.10
2018-02-15T23:18:54.399Z,50.23
2018-02-15T23:21:22.588Z,52.73
2018-02-15T23:23:51.700Z,54.80
2018-02-15T23:26:19.982Z,43.10
2018-02-15T23:28:48.236Z,49.27
2018-02-15T23:31:17.324Z,48.63
2018-02-15T23:33:45.573Z,50.33
2018-02-15T23:36:13.764Z,50.40
2018-02-15T23:38:41.981Z,60.20
2018-02-15T23:41:10.195Z,61.37
2018-02-15T23:43:38.397Z,60.07
2018-02-15T23:46:06.616Z,60.17
2018-02-15T23:48:34.981Z,54.17
2018-02-15T23:51:03.209Z,55.53
2018-02-15T23:53:31.435Z,61.30
2018-02-15T23:56:00.384Z,48.00
2018-02-15T23:58:28.688Z,67.27
